createdAt,value
2022-12-18T00:01:29.283Z,103086.31
2022-12-18T00:03:56.760Z,103074.75
2022-12-18T00:06:24.156Z,103067.34
2022-12-18T00:08:50.859Z,103064.84
2022-12-18T00:11:22.440Z,103058.75
2022-12-18T00:13:50.526Z,103054.13
2022-12-18T00:16:22.066Z,103060.88
2022-12-18T00:18:50.384Z,103063.38
2022-12-18T00:21:16.937Z,103058.22
2022-12-18T00:23:44.819Z,103066.38
2022-12-18T00:26:16.610Z,103064.63
2022-12-18T00:28:43.946Z,103069.13
2022-12-18T00:31:13.132Z,103069.97
2022-12-18T00:33:40.102Z,103063.56
2022-12-18T00:36:09.947Z,103058.09
2022-12-18T00:38:36.789Z,103059.78
2022-12-18T00:41:03.785Z,103058.31
2022-12-18T00:43:30.263Z,103053.00
2022-12-18T00:45:56.860Z,103060.00
2022-12-18T00:48:23.629Z,103065.13
2022-12-18T00:50:51.017Z,103055.59
2022-12-18T00:53:17.634Z,103055.81
2022-12-18T00:55:44.831Z,103061.75
2022-12-18T00:58:12.051Z,103061.75
2022-12-18T01:00:39.067Z,103058.06
2022-12-18T01:03:06.522Z,103052.81
2022-12-18T01:05:33.338Z,103058.28
2022-12-18T01:08:00.724Z,103041.75
2022-12-18T01:10:27.550Z,103048.66
2022-12-18T01:12:53.950Z,103045.91
2022-12-18T01:15:20.404Z,103049.13
2022-12-18T01:17:46.835Z,103042.34
2022-12-18T01:20:14.084Z,103050.44
2022-12-18T01:22:40.766Z,103052.31
2022-12-18T01:25:07.539Z,103049.81
2022-12-18T01:27:34.977Z,103058.50
2022-12-18T01:30:01.337Z,103073.97
2022-12-18T01:32:31.443Z,103071.81
2022-12-18T01:34:57.955Z,103069.41
2022-12-18T01:37:24.378Z,103067.13
2022-12-18T01:39:50.946Z,103068.91
2022-12-18T01:42:17.675Z,103076.03
2022-12-18T01:45:14.618Z,103067.97
2022-12-18T01:47:53.049Z,103079.16
2022-12-18T01:50:33.574Z,103076.75
2022-12-18T01:53:15.785Z,103074.47
2022-12-18T01:55:47.470Z,103073.00
2022-12-18T01:58:14.357Z,103067.19
2022-12-18T02:00:41.162Z,103080.72
2022-12-18T02:03:07.691Z,103086.03
2022-12-18T02:05:42.284Z,103094.94
2022-12-18T02:08:42.096Z,103085.63
2022-12-18T02:11:19.890Z,103089.44
2022-12-18T02:14:09.494Z,103090.56
2022-12-18T02:16:36.370Z,103080.94
2022-12-18T02:19:15.358Z,103080.31
2022-12-18T02:21:53.638Z,103091.00
2022-12-18T02:24:46.236Z,103080.03
2022-12-18T02:27:14.203Z,103086.22
2022-12-18T02:30:01.859Z,103088.09
2022-12-18T02:32:32.250Z,103094.25
2022-12-18T02:35:00.941Z,103089.22
2022-12-18T02:37:28.918Z,103089.22
2022-12-18T02:39:58.631Z,103084.00
2022-12-18T02:42:25.502Z,103079.63
2022-12-18T02:44:52.723Z,103071.88
2022-12-18T02:47:22.918Z,103063.31
2022-12-18T02:50:31.684Z,103054.97
2022-12-18T02:53:13.026Z,103064.69
2022-12-18T02:55:51.661Z,103063.13
2022-12-18T02:58:55.420Z,103055.38
2022-12-18T03:01:59.788Z,103059.88
2022-12-18T03:04:48.497Z,103061.66
2022-12-18T03:07:24.724Z,103048.72
2022-12-18T03:09:54.056Z,103044.53
2022-12-18T03:12:33.316Z,103046.41
2022-12-18T03:15:17.662Z,103044.03
2022-12-18T03:17:49.715Z,103040.06
2022-12-18T03:20:20.620Z,103048.09
2022-12-18T03:22:52.866Z,103034.50
2022-12-18T03:25:20.714Z,103035.44
2022-12-18T03:27:56.281Z,103034.94
2022-12-18T03:30:22.878Z,103033.38
2022-12-18T03:32:59.988Z,103033.50
2022-12-18T03:35:32.600Z,103029.41
2022-12-18T03:37:59.275Z,103021.69
2022-12-18T03:40:35.731Z,103021.09
2022-12-18T03:43:15.059Z,103018.66
2022-12-18T03:45:53.234Z,103016.19
2022-12-18T03:48:28.751Z,103010.97
2022-12-18T03:51:00.797Z,103012.72
2022-12-18T03:53:46.595Z,103010.31
2022-12-18T03:56:15.878Z,103009.59
2022-12-18T03:58:44.754Z,103011.25
2022-12-18T04:01:16.048Z,103005.31
2022-12-18T04:03:44.982Z,103005.31
2022-12-18T04:06:12.798Z,103005.41
2022-12-18T04:08:40.904Z,102996.94
2022-12-18T04:11:07.357Z,103003.22
2022-12-18T04:13:37.530Z,102996.31
2022-12-18T04:16:04.600Z,102985.88
2022-12-18T04:18:31.839Z,102989.53
2022-12-18T04:20:58.291Z,102987.03
2022-12-18T04:23:24.871Z,102981.91
2022-12-18T04:25:51.283Z,102983.59
2022-12-18T04:28:18.038Z,102975.84
2022-12-18T04:30:44.687Z,102975.84
2022-12-18T04:33:12.724Z,102989.00
2022-12-18T04:35:40.195Z,102978.56
2022-12-18T04:38:07.845Z,102978.56
2022-12-18T04:40:37.153Z,102982.00
2022-12-18T04:43:04.549Z,102982.13
2022-12-18T04:45:32.328Z,102995.28
2022-12-18T04:47:59.468Z,102997.03
2022-12-18T04:50:25.990Z,103005.72
2022-12-18T04:52:52.415Z,103007.47
2022-12-18T04:55:18.763Z,103018.97
2022-12-18T04:57:45.156Z,103008.53
2022-12-18T05:00:12.375Z,103013.00
2022-12-18T05:02:38.897Z,103024.38
2022-12-18T05:05:06.238Z,103022.59
2022-12-18T05:07:32.751Z,103021.91
2022-12-18T05:09:59.127Z,103028.06
2022-12-18T05:12:25.699Z,103036.81
2022-12-18T05:14:52.334Z,103021.97
2022-12-18T05:17:18.780Z,103031.59
2022-12-18T05:19:45.435Z,103033.28
2022-12-18T05:22:12.617Z,103041.91
2022-12-18T05:24:39.159Z,103042.03
2022-12-18T05:27:05.543Z,103042.03
2022-12-18T05:29:32.022Z,103050.69
2022-12-18T05:31:58.394Z,103061.88
2022-12-18T05:34:24.850Z,103064.59
2022-12-18T05:36:51.245Z,103054.03
2022-12-18T05:39:17.739Z,103053.09
2022-12-18T05:41:44.217Z,103049.56
2022-12-18T05:44:10.623Z,103044.44
2022-12-18T05:46:37.316Z,103032.34
2022-12-18T05:49:03.816Z,103027.13
2022-12-18T05:51:30.191Z,103032.34
2022-12-18T05:53:56.555Z,103027.13
2022-12-18T05:56:23.929Z,103023.03
2022-12-18T05:58:54.701Z,103026.56
2022-12-18T06:01:24.621Z,103019.69
2022-12-18T06:03:51.397Z,103013.72
2022-12-18T06:06:24.036Z,103018.13
2022-12-18T06:08:51.695Z,103017.25
2022-12-18T06:11:21.588Z,103018.31
2022-12-18T06:13:57.666Z,103014.03
2022-12-18T06:16:25.164Z,103006.41
2022-12-18T06:18:51.627Z,103004.84
2022-12-18T06:21:17.975Z,103001.50
2022-12-18T06:23:44.566Z,102999.00
2022-12-18T06:26:12.918Z,103005.16
2022-12-18T06:28:39.311Z,102993.16
2022-12-18T06:31:06.907Z,102993.22
2022-12-18T06:33:33.981Z,102990.81
2022-12-18T06:36:09.024Z,102989.25
2022-12-18T06:38:37.885Z,102983.31
2022-12-18T06:41:10.303Z,102984.34
2022-12-18T06:43:37.654Z,102977.66
2022-12-18T06:46:05.950Z,102978.69
2022-12-18T06:48:33.350Z,102981.50
2022-12-18T06:50:59.958Z,102965.97
2022-12-18T06:53:26.375Z,102963.53
2022-12-18T06:55:52.940Z,102956.78
2022-12-18T06:58:19.342Z,102960.31
2022-12-18T07:00:45.879Z,102953.63
2022-12-18T07:03:12.300Z,102952.13
2022-12-18T07:05:41.834Z,102949.53
2022-12-18T07:08:08.269Z,102945.28
2022-12-18T07:10:34.730Z,102946.09
2022-12-18T07:13:01.124Z,102952.13
2022-12-18T07:15:27.459Z,102948.81
2022-12-18T07:17:53.826Z,102944.63
2022-12-18T07:20:20.185Z,102935.13
2022-12-18T07:22:46.599Z,102937.72
2022-12-18T07:25:12.994Z,102938.59
2022-12-18T07:27:39.415Z,102936.91
2022-12-18T07:30:06.579Z,102945.56
2022-12-18T07:32:33.008Z,102938.66
2022-12-18T07:34:59.550Z,102921.38
2022-12-18T07:37:26.083Z,102923.13
2022-12-18T07:39:52.487Z,102914.56
2022-12-18T07:42:34.107Z,102912.06
2022-12-18T07:45:01.301Z,102920.72
2022-12-18T07:47:28.835Z,102905.94
2022-12-18T07:49:55.974Z,102898.84
2022-12-18T07:52:26.164Z,102896.25
2022-12-18T07:54:53.038Z,102896.13
2022-12-18T07:57:41.830Z,102881.22
2022-12-18T08:00:06.622Z,102882.91
2022-12-18T08:02:33.200Z,102891.47
2022-12-18T08:04:59.792Z,102886.97
2022-12-18T08:07:26.285Z,102884.16
2022-12-18T08:09:52.621Z,102870.81
2022-12-18T08:12:19.113Z,102866.25
2022-12-18T08:14:45.494Z,102869.47
2022-12-18T08:17:11.920Z,102868.34
2022-12-18T08:19:38.415Z,102869.06
2022-12-18T08:22:04.830Z,102878.16
2022-12-18T08:24:31.681Z,102872.50
2022-12-18T08:27:27.756Z,102874.81
2022-12-18T08:29:44.532Z,102893.50
2022-12-18T08:32:10.974Z,102901.00
2022-12-18T08:34:37.618Z,102901.50
2022-12-18T08:37:04.479Z,102906.31
2022-12-18T08:39:30.872Z,102901.72
2022-12-18T08:42:16.018Z,102896.19
2022-12-18T08:44:42.431Z,102892.31
2022-12-18T08:47:09.244Z,102877.06
2022-12-18T08:49:35.880Z,102876.75
2022-12-18T08:52:03.698Z,102890.19
2022-12-18T08:54:30.348Z,102889.91
2022-12-18T08:56:56.719Z,102883.41
2022-12-18T08:59:24.154Z,102878.59
2022-12-18T09:01:50.703Z,102896.06
2022-12-18T09:04:17.255Z,102900.13
2022-12-18T09:06:44.316Z,102909.53
2022-12-18T09:09:10.834Z,102895.41
2022-12-18T09:11:37.295Z,102884.97
2022-12-18T09:14:04.018Z,102890.81
2022-12-18T09:16:33.073Z,102884.50
2022-12-18T09:19:00.631Z,102884.09
2022-12-18T09:21:29.798Z,102876.38
2022-12-18T09:23:56.758Z,102872.88
2022-12-18T09:26:24.418Z,102880.88
2022-12-18T09:28:51.689Z,102884.59
2022-12-18T09:31:20.041Z,102882.16
2022-12-18T09:33:46.546Z,102879.78
2022-12-18T09:36:16.391Z,102874.13
2022-12-18T09:38:43.227Z,102860.56
2022-12-18T09:41:41.594Z,102858.22
2022-12-18T09:44:46.974Z,102854.75
2022-12-18T09:47:19.340Z,102846.31
2022-12-18T09:49:48.557Z,102854.44
2022-12-18T09:52:30.458Z,102852.19
2022-12-18T09:55:09.004Z,102841.94
2022-12-18T09:57:40.123Z,102832.63
2022-12-18T10:00:19.634Z,102835.50
2022-12-18T10:02:46.914Z,102840.94
2022-12-18T10:05:52.689Z,102832.34
2022-12-18T10:08:34.838Z,102830.78
2022-12-18T10:11:40.936Z,102830.88
2022-12-18T10:14:07.305Z,102826.81
2022-12-18T10:16:52.893Z,102819.41
2022-12-18T10:19:49.995Z,102822.38
2022-12-18T10:22:23.331Z,102818.31
2022-12-18T10:25:16.308Z,102819.31
2022-12-18T10:27:42.906Z,102823.22
2022-12-18T10:30:21.507Z,102829.19
2022-12-18T10:32:48.125Z,102819.97
2022-12-18T10:35:26.276Z,102811.75
2022-12-18T10:38:17.187Z,102793.00
2022-12-18T10:40:58.982Z,102815.38
2022-12-18T10:43:36.705Z,102809.78
2022-12-18T10:46:23.337Z,102802.19
2022-12-18T10:48:54.226Z,102795.72
2022-12-18T10:51:27.755Z,102794.28
2022-12-18T10:54:02.251Z,102787.78
2022-12-18T10:56:32.511Z,102794.28
2022-12-18T10:59:05.115Z,102789.50
2022-12-18T11:01:52.209Z,102782.91
2022-12-18T11:04:24.351Z,102779.06
2022-12-18T11:07:01.132Z,102769.81
2022-12-18T11:09:29.952Z,102764.97
2022-12-18T11:12:00.221Z,102758.66
2022-12-18T11:14:28.319Z,102753.00
2022-12-18T11:17:24.776Z,102753.44
2022-12-18T11:19:43.033Z,102758.94
2022-12-18T11:22:31.509Z,102740.31
2022-12-18T11:25:30.947Z,102739.22
2022-12-18T11:27:52.502Z,102728.16
2022-12-18T11:30:28.210Z,102721.13
2022-12-18T11:33:04.911Z,102724.59
2022-12-18T11:35:40.471Z,102728.03
2022-12-18T11:38:27.010Z,102734.44
2022-12-18T11:41:05.178Z,102737.44
2022-12-18T11:43:53.866Z,102739.81
2022-12-18T11:46:35.952Z,102733.75
2022-12-18T11:49:17.035Z,102727.38
2022-12-18T11:51:54.531Z,102723.63
2022-12-18T11:54:20.947Z,102716.88
2022-12-18T11:56:57.764Z,102708.56
2022-12-18T11:59:43.485Z,102702.06
2022-12-18T12:02:26.696Z,102701.06
2022-12-18T12:05:14.622Z,102697.47
2022-12-18T12:08:01.480Z,102684.47
2022-12-18T12:10:46.541Z,102679.50
2022-12-18T12:13:34.042Z,102665.38
2022-12-18T12:16:12.147Z,102672.03
2022-12-18T12:19:15.955Z,102667.72
2022-12-18T12:21:47.804Z,102666.47
2022-12-18T12:24:23.296Z,102653.03
2022-12-18T12:27:23.637Z,102659.00
2022-12-18T12:29:57.147Z,102653.47
2022-12-18T12:32:51.996Z,102659.53
2022-12-18T12:35:55.534Z,102652.34
2022-12-18T12:38:51.721Z,102652.88
2022-12-18T12:41:42.781Z,102641.25
2022-12-18T12:44:17.698Z,102647.19
2022-12-18T12:46:44.900Z,102632.38
2022-12-18T12:49:18.375Z,102621.13
2022-12-18T12:51:48.125Z,102627.34
2022-12-18T12:54:24.493Z,102620.16
2022-12-18T12:57:14.628Z,102619.47
2022-12-18T12:59:53.638Z,102614.78
2022-12-18T13:02:48.662Z,102610.31
2022-12-18T13:05:43.164Z,102608.53
2022-12-18T13:08:33.224Z,102608.22
2022-12-18T13:11:19.826Z,102609.75
2022-12-18T13:13:57.238Z,102612.91
2022-12-18T13:16:26.286Z,102611.94
2022-12-18T13:18:55.354Z,102614.41
2022-12-18T13:21:28.028Z,102613.31
2022-12-18T13:23:55.030Z,102616.78
2022-12-18T13:26:28.855Z,102613.31
2022-12-18T13:28:57.747Z,102610.53
2022-12-18T13:31:43.455Z,102596.53
2022-12-18T13:34:26.933Z,102595.56
2022-12-18T13:36:58.215Z,102592.13
2022-12-18T13:39:35.105Z,102591.16
2022-12-18T13:42:08.492Z,102585.88
2022-12-18T13:44:44.246Z,102584.91
2022-12-18T13:47:34.279Z,102577.16
2022-12-18T13:50:03.122Z,102572.84
2022-12-18T13:52:37.991Z,102560.53
2022-12-18T13:55:08.650Z,102550.03
2022-12-18T13:57:39.339Z,102553.34
2022-12-18T14:00:29.772Z,102551.69
2022-12-18T14:03:00.412Z,102548.88
2022-12-18T14:05:32.930Z,102554.16
2022-12-18T14:08:06.601Z,102540.03
2022-12-18T14:10:44.410Z,102538.88
2022-12-18T14:13:30.098Z,102541.69
2022-12-18T14:15:59.197Z,102538.88
2022-12-18T14:18:29.977Z,102527.38
2022-12-18T14:21:00.313Z,102527.38
2022-12-18T14:23:39.393Z,102524.75
2022-12-18T14:26:28.949Z,102525.44
2022-12-18T14:29:27.778Z,102506.03
2022-12-18T14:32:16.492Z,102506.03
2022-12-18T14:34:49.167Z,102500.63
2022-12-18T14:37:20.717Z,102498.00
2022-12-18T14:40:08.694Z,102505.88
2022-12-18T14:42:35.407Z,102506.72
2022-12-18T14:45:37.639Z,102498.84
2022-12-18T14:48:36.837Z,102499.66
2022-12-18T14:51:16.017Z,102488.16
2022-12-18T14:53:52.057Z,102487.34
2022-12-18T14:56:30.240Z,102484.84
2022-12-18T14:59:02.212Z,102485.00
2022-12-18T15:01:51.523Z,102483.34
2022-12-18T15:04:40.252Z,102491.22
2022-12-18T15:07:14.520Z,102487.63
2022-12-18T15:09:45.870Z,102487.63
2022-12-18T15:12:35.685Z,102483.22
2022-12-18T15:15:02.951Z,102483.34
2022-12-18T15:17:29.642Z,102476.28
2022-12-18T15:20:10.278Z,102462.28
2022-12-18T15:22:37.777Z,102473.66
2022-12-18T15:25:23.215Z,102471.03
2022-12-18T15:27:49.611Z,102478.75
2022-12-18T15:30:16.224Z,102483.22
2022-12-18T15:32:42.619Z,102463.13
2022-12-18T15:35:09.046Z,102477.09
2022-12-18T15:37:35.729Z,102477.09
2022-12-18T15:40:03.137Z,102469.19
2022-12-18T15:42:49.097Z,102474.47
2022-12-18T15:45:15.982Z,102479.56
2022-12-18T15:47:45.353Z,102474.31
2022-12-18T15:50:11.763Z,102463.94
2022-12-18T15:52:43.941Z,102463.13
2022-12-18T15:55:39.692Z,102457.88
2022-12-18T15:58:08.830Z,102451.75
2022-12-18T16:00:37.636Z,102441.09
2022-12-18T16:03:05.771Z,102431.56
2022-12-18T16:05:33.103Z,102430.72
2022-12-18T16:07:59.619Z,102434.31
2022-12-18T16:10:27.313Z,102436.94
2022-12-18T16:12:53.787Z,102421.16
2022-12-18T16:15:24.465Z,102420.34
2022-12-18T16:17:52.719Z,102423.09
2022-12-18T16:20:22.334Z,102413.25
2022-12-18T16:22:50.224Z,102411.47
2022-12-18T16:25:28.587Z,102405.38
2022-12-18T16:27:56.918Z,102410.63
2022-12-18T16:30:28.558Z,102400.78
2022-12-18T16:32:59.436Z,102388.75
2022-12-18T16:35:27.159Z,102386.81
2022-12-18T16:37:53.823Z,102374.31
2022-12-18T16:40:21.132Z,102379.56
2022-12-18T16:45:17.116Z,102366.28
2022-12-18T16:47:43.753Z,102369.72
2022-12-18T16:50:10.931Z,102375.16
2022-12-18T16:52:37.396Z,102370.69
2022-12-18T16:55:04.303Z,102366.94
2022-12-18T16:57:30.751Z,102373.03
2022-12-18T17:00:02.992Z,102353.78
2022-12-18T17:02:31.562Z,102355.59
2022-12-18T17:04:59.160Z,102353.78
2022-12-18T17:07:26.866Z,102359.06
2022-12-18T17:09:54.066Z,102356.25
2022-12-18T17:12:20.829Z,102356.25
2022-12-18T17:14:47.156Z,102362.38
2022-12-18T17:17:22.240Z,102370.91
2022-12-18T17:19:49.809Z,102357.91
2022-12-18T17:22:16.320Z,102356.09
2022-12-18T17:24:42.846Z,102367.31
2022-12-18T17:27:09.323Z,102360.25
2022-12-18T17:29:35.957Z,102361.22
2022-12-18T17:32:02.462Z,102358.59
2022-12-18T17:34:29.043Z,102355.81
2022-12-18T17:36:56.720Z,102361.22
2022-12-18T17:39:23.354Z,102361.91
2022-12-18T17:41:50.142Z,102354.97
2022-12-18T17:44:17.950Z,102357.44
2022-12-18T17:46:46.190Z,102358.28
2022-12-18T17:49:14.164Z,102360.09
2022-12-18T17:51:42.728Z,102361.75
2022-12-18T17:54:09.772Z,102367.00
2022-12-18T17:56:36.469Z,102362.59
2022-12-18T17:59:03.005Z,102356.47
2022-12-18T18:01:29.594Z,102349.41
2022-12-18T18:03:56.616Z,102350.22
2022-12-18T18:06:24.141Z,102355.50
2022-12-18T18:08:51.170Z,102350.22
2022-12-18T18:11:38.486Z,102359.94
2022-12-18T18:14:07.990Z,102351.72
2022-12-18T18:16:47.705Z,102353.53
2022-12-18T18:19:19.557Z,102355.88
2022-12-18T18:21:48.475Z,102358.63
2022-12-18T18:24:17.996Z,102355.88
2022-12-18T18:26:46.743Z,102347.00
2022-12-18T18:29:16.482Z,102349.47
2022-12-18T18:31:43.785Z,102351.94
2022-12-18T18:34:16.233Z,102343.06
2022-12-18T18:36:42.930Z,102342.25
2022-12-18T18:39:09.661Z,102342.91
2022-12-18T18:41:36.951Z,102340.13
2022-12-18T18:44:03.677Z,102344.56
2022-12-18T18:46:30.232Z,102351.31
2022-12-18T18:48:56.604Z,102343.25
2022-12-18T18:51:23.910Z,102335.22
2022-12-18T18:53:52.626Z,102328.97
2022-12-18T18:59:08.522Z,102325.88
2022-12-18T19:01:35.254Z,102335.25
2022-12-18T19:04:04.595Z,102328.03
2022-12-18T19:06:31.235Z,102321.63
2022-12-18T19:09:01.203Z,102322.28
2022-12-18T19:11:46.456Z,102317.03
2022-12-18T19:14:14.666Z,102312.56
2022-12-18T19:16:42.724Z,102322.81
2022-12-18T19:19:09.571Z,102318.88
2022-12-18T19:21:38.123Z,102318.72
2022-12-18T19:24:05.094Z,102317.59
2022-12-18T19:26:31.736Z,102319.25
2022-12-18T19:29:06.872Z,102318.22
2022-12-18T19:31:36.340Z,102318.22
2022-12-18T19:34:07.543Z,102317.94
2022-12-18T19:36:36.286Z,102327.47
2022-12-18T19:39:15.601Z,102321.91
2022-12-18T19:41:42.279Z,102328.81
2022-12-18T19:44:12.158Z,102331.16
2022-12-18T19:46:41.927Z,102329.31
2022-12-18T19:49:09.994Z,102326.22
2022-12-18T19:51:36.622Z,102324.09
2022-12-18T19:54:03.323Z,102319.66
2022-12-18T19:56:32.651Z,102322.28
2022-12-18T19:59:00.122Z,102332.97
2022-12-18T20:01:27.856Z,102326.22
2022-12-18T20:03:55.289Z,102321.25
2022-12-18T20:06:32.200Z,102307.59
2022-12-18T20:09:01.886Z,102314.13
2022-12-18T20:11:29.817Z,102309.88
2022-12-18T20:13:57.649Z,102313.50
2022-12-18T20:16:24.162Z,102319.25
2022-12-18T20:18:50.752Z,102312.47
2022-12-18T20:21:18.721Z,102316.06
2022-12-18T20:23:45.896Z,102317.06
2022-12-18T20:26:12.392Z,102315.41
2022-12-18T20:28:40.386Z,102314.75
2022-12-18T20:31:08.313Z,102322.81
2022-12-18T20:33:37.270Z,102326.41
2022-12-18T20:36:08.627Z,102320.34
2022-12-18T20:38:35.455Z,102317.84
2022-12-18T20:41:07.718Z,102303.06
2022-12-18T20:43:34.256Z,102301.53
2022-12-18T20:46:03.076Z,102303.34
2022-12-18T20:48:30.584Z,102300.06
2022-12-18T20:51:03.813Z,102302.00
2022-12-18T20:53:30.960Z,102305.63
2022-12-18T20:55:57.446Z,102294.13
2022-12-18T20:58:24.363Z,102287.19
2022-12-18T21:01:01.992Z,102295.41
2022-12-18T21:03:28.617Z,102284.72
2022-12-18T21:05:55.183Z,102285.72
2022-12-18T21:08:21.654Z,102274.34
2022-12-18T21:10:48.175Z,102264.66
2022-12-18T21:13:15.094Z,102257.56
2022-12-18T21:15:43.702Z,102259.22
2022-12-18T21:18:10.067Z,102259.22
2022-12-18T21:20:36.512Z,102253.94
2022-12-18T21:23:16.035Z,102245.06
2022-12-18T21:25:44.067Z,102249.53
2022-12-18T21:28:12.219Z,102243.41
2022-12-18T21:30:38.848Z,102244.09
2022-12-18T21:33:05.292Z,102237.03
2022-12-18T21:35:32.219Z,102230.91
2022-12-18T21:37:58.792Z,102241.28
2022-12-18T21:40:25.168Z,102235.03
2022-12-18T21:43:10.420Z,102234.06
2022-12-18T21:45:40.367Z,102238.34
2022-12-18T21:48:06.967Z,102236.53
2022-12-18T21:50:33.536Z,102231.94
2022-12-18T21:52:59.977Z,102222.22
2022-12-18T21:55:26.410Z,102223.03
2022-12-18T21:57:53.968Z,102218.44
2022-12-18T22:00:20.592Z,102204.28
2022-12-18T22:02:48.755Z,102189.16
2022-12-18T22:05:34.747Z,102200.38
2022-12-18T22:08:01.558Z,102190.50
2022-12-18T22:10:27.890Z,102192.97
2022-12-18T22:12:55.017Z,102180.78
2022-12-18T22:15:22.152Z,102186.88
2022-12-18T22:17:50.205Z,102178.81
2022-12-18T22:20:17.885Z,102177.00
2022-12-18T22:22:46.605Z,102177.66
2022-12-18T22:25:13.030Z,102168.09
2022-12-18T22:27:39.512Z,102161.84
2022-12-18T22:30:06.537Z,102147.69
2022-12-18T22:32:34.941Z,102139.66
2022-12-18T22:35:09.447Z,102136.03
2022-12-18T22:37:39.449Z,102124.34
2022-12-18T22:40:12.182Z,102117.09
2022-12-18T22:42:40.485Z,102114.28
2022-12-18T22:45:07.308Z,102093.22
2022-12-18T22:47:33.731Z,102087.94
2022-12-18T22:50:00.174Z,102096.50
2022-12-18T22:52:26.674Z,102092.03
2022-12-18T22:54:54.124Z,102091.06
2022-12-18T22:57:22.100Z,102089.94
2022-12-18T22:59:49.880Z,102098.66
2022-12-18T23:02:17.720Z,102096.69
2022-12-18T23:04:44.933Z,102091.22
2022-12-18T23:07:11.743Z,102099.97
2022-12-18T23:09:39.823Z,102076.91
2022-12-18T23:12:06.789Z,102064.56
2022-12-18T23:14:33.273Z,102061.75
2022-12-18T23:16:59.636Z,102051.88
2022-12-18T23:19:26.297Z,102041.00
2022-12-18T23:21:52.758Z,102043.47
2022-12-18T23:24:21.236Z,102054.84
2022-12-18T23:26:47.567Z,102061.91
2022-12-18T23:29:13.918Z,102059.94
2022-12-18T23:31:40.384Z,102047.59
2022-12-18T23:34:07.717Z,102052.53
2022-12-18T23:36:46.005Z,102049.06
2022-12-18T23:39:20.886Z,102043.63
2022-12-18T23:41:56.063Z,102013.63
2022-12-18T23:44:22.599Z,102022.38
2022-12-18T23:46:49.084Z,102009.19
2022-12-18T23:49:15.523Z,101997.00
2022-12-18T23:51:41.881Z,101997.81
2022-12-18T23:54:10.212Z,102010.84
2022-12-18T23:56:36.583Z,102014.28
2022-12-18T23:59:03.300Z,102008.03
